Arapoema, Brazil
Current Conditions -  °F | °C
As of 1:00 PM on Monday 26 Jan 2015 (Local Time) from SBCJ Reporting Station
Broken Clouds Broken Clouds  
Wind Chill: 77°   Ceiling: 10000
Heat Index: 79°   Visibility: 6mi
Dew Point: 68°   Wind: 5mph
Humidity: 74%   Direction: 140°SE
Pressure: 30.03"   Gusts: NA
Location:  7.66°S, 49.06°W
Report Text: SBCJ 261600Z 14004KT 9999 SCT019 BKN100 25/20 Q1017
Loading
Personal Weather Stations






























Interactive Weather Map New forecast layout! Learn more

10-Day Weather Forecast

Advertisements
Track Severe Weather on mobile